Time;durP1;ratioP1;P1;durP2;ratioP2;P2;SDS_P1;SDS_P2;PMS_P1;PMS_P2;Temp;Humidity;BMP_temperature;BMP_pressure;BME280_temperature;BME280_humidity;BME280_pressure;Samples;Min_cycle;Max_cycle;Signal;HPM_P1;HPM_P2
2021/07/19 00:02:06;;;;;;;4.20;3.40;;;;;;;;;;5007168;28;20031;-78
2021/07/19 00:04:35;;;;;;;4.47;3.28;;;;;;;;;;5025017;28;20071;-78
2021/07/19 00:07:01;;;;;;;4.05;3.63;;;;;;;;;;4994383;28;20118;-80
2021/07/19 00:09:26;;;;;;;6.03;3.65;;;;;;;;;;5010886;28;20038;-79
2021/07/19 00:11:52;;;;;;;5.80;3.28;;;;;;;;;;5010562;28;20040;-78
2021/07/19 00:14:17;;;;;;;4.05;3.63;;;;;;;;;;5010564;28;20046;-78
2021/07/19 00:16:43;;;;;;;5.38;3.88;;;;;;;;;;5001563;28;20041;-81
2021/07/19 00:19:09;;;;;;;4.13;3.40;;;;;;;;;;5006564;28;20037;-81
2021/07/19 00:21:35;;;;;;;5.22;3.92;;;;;;;;;;5010658;28;20038;-80
2021/07/19 00:24:01;;;;;;;5.47;3.63;;;;;;;;;;4978353;28;20041;-81
2021/07/19 00:26:27;;;;;;;4.05;3.00;;;;;;;;;;4993670;28;20038;-79
2021/07/19 00:28:53;;;;;;;6.03;3.60;;;;;;;;;;4979644;28;20042;-78
2021/07/19 00:31:20;;;;;;;3.97;3.20;;;;;;;;;;5028413;28;20037;-78
2021/07/19 00:33:46;;;;;;;4.43;3.47;;;;;;;;;;5010092;28;20073;-78
2021/07/19 00:36:11;;;;;;;4.90;3.60;;;;;;;;;;4977868;28;20116;-78
2021/07/19 00:38:37;;;;;;;3.83;3.33;;;;;;;;;;5010958;28;20058;-78
2021/07/19 00:41:03;;;;;;;5.10;3.80;;;;;;;;;;5011072;28;20035;-78
2021/07/19 00:43:29;;;;;;;4.97;3.70;;;;;;;;;;5021674;28;20045;-78
2021/07/19 00:45:54;;;;;;;4.20;3.30;;;;;;;;;;5030366;28;20041;-78
2021/07/19 00:48:20;;;;;;;4.68;3.20;;;;;;;;;;5014081;28;20125;-78
2021/07/19 00:50:45;;;;;;;4.78;3.65;;;;;;;;;;5030721;28;20092;-78
2021/07/19 00:53:11;;;;;;;6.07;3.92;;;;;;;;;;5014440;28;20053;-78
2021/07/19 00:55:47;;;;;;;4.72;3.00;;;;;;;;;;5013896;28;20052;-78
2021/07/19 00:58:13;;;;;;;8.18;4.07;;;;;;;;;;5010787;28;20062;-78
2021/07/19 01:00:48;;;;;;;4.43;3.33;;;;;;;;;;4996711;28;20031;-78
2021/07/19 01:03:13;;;;;;;4.72;3.85;;;;;;;;;;5013591;28;20041;-78
2021/07/19 01:05:40;;;;;;;4.78;3.67;;;;;;;;;;5013770;28;20029;-79
2021/07/19 01:08:06;;;;;;;6.65;3.92;;;;;;;;;;5011646;28;20046;-78
2021/07/19 01:10:32;;;;;;;4.60;3.67;;;;;;;;;;4994058;28;20030;-78
2021/07/19 01:12:57;;;;;;;6.22;3.22;;;;;;;;;;4994203;28;20137;-78
2021/07/19 01:15:29;;;;;;;5.88;3.50;;;;;;;;;;4994200;28;20093;-78
2021/07/19 01:17:54;;;;;;;5.47;3.25;;;;;;;;;;4994630;28;20034;-78
2021/07/19 01:20:23;;;;;;;4.30;3.47;;;;;;;;;;5010753;28;20070;-78
2021/07/19 01:23:13;;;;;;;4.43;3.70;;;;;;;;;;5030357;28;20034;-78
2021/07/19 01:25:44;;;;;;;3.85;3.20;;;;;;;;;;5013644;28;20041;-78
2021/07/19 01:28:30;;;;;;;5.93;3.90;;;;;;;;;;5013787;28;20116;-78
2021/07/19 01:30:58;;;;;;;4.38;3.25;;;;;;;;;;4996821;28;20283;-79
2021/07/19 01:33:23;;;;;;;5.35;3.80;;;;;;;;;;5026154;28;20046;-79
2021/07/19 01:35:48;;;;;;;4.97;3.40;;;;;;;;;;5010315;28;20041;-78
2021/07/19 01:38:15;;;;;;;7.40;3.65;;;;;;;;;;5028482;28;20034;-79
2021/07/19 01:40:40;;;;;;;4.90;3.80;;;;;;;;;;5012671;28;20065;-79
2021/07/19 01:43:07;;;;;;;4.38;3.38;;;;;;;;;;4996731;28;20128;-79
2021/07/19 01:45:33;;;;;;;5.38;3.30;;;;;;;;;;5030169;28;20464;-78
2021/07/19 01:47:58;;;;;;;5.70;3.20;;;;;;;;;;5029173;28;20037;-79
2021/07/19 01:50:25;;;;;;;6.45;3.40;;;;;;;;;;4996867;28;20038;-79
2021/07/19 01:52:50;;;;;;;7.53;3.50;;;;;;;;;;5013250;28;20045;-79
2021/07/19 01:55:16;;;;;;;4.88;3.83;;;;;;;;;;4996779;28;20046;-79
2021/07/19 01:57:41;;;;;;;4.80;3.20;;;;;;;;;;5029994;28;20047;-78
2021/07/19 02:00:08;;;;;;;5.97;3.55;;;;;;;;;;5013175;28;20048;-79
2021/07/19 02:02:36;;;;;;;6.75;3.38;;;;;;;;;;5009009;28;20058;-79
2021/07/19 02:05:03;;;;;;;5.55;3.58;;;;;;;;;;4993387;28;20488;-79
2021/07/19 02:07:28;;;;;;;4.65;3.42;;;;;;;;;;5023003;28;20030;-79
2021/07/19 02:09:54;;;;;;;5.85;3.63;;;;;;;;;;5012751;28;20072;-79
2021/07/19 02:12:20;;;;;;;4.68;3.33;;;;;;;;;;5025406;28;20046;-79
2021/07/19 02:14:45;;;;;;;4.10;3.13;;;;;;;;;;4999677;28;20543;-79
2021/07/19 02:17:11;;;;;;;5.90;3.28;;;;;;;;;;5042557;28;20037;-78
2021/07/19 02:19:37;;;;;;;6.43;3.25;;;;;;;;;;5028910;28;20126;-78
2021/07/19 02:22:08;;;;;;;6.00;3.63;;;;;;;;;;4980013;28;20034;-78
2021/07/19 02:24:33;;;;;;;5.32;3.47;;;;;;;;;;5003458;28;20140;-79
2021/07/19 02:26:59;;;;;;;5.68;3.50;;;;;;;;;;5027658;28;20120;-78
2021/07/19 02:29:25;;;;;;;5.40;3.58;;;;;;;;;;5028972;28;20416;-78
2021/07/19 02:31:51;;;;;;;6.45;3.75;;;;;;;;;;5017517;28;20109;-78
2021/07/19 02:34:17;;;;;;;7.70;3.10;;;;;;;;;;4992604;28;20117;-79
2021/07/19 02:36:43;;;;;;;8.27;4.07;;;;;;;;;;5022345;28;20450;-79
2021/07/19 02:39:09;;;;;;;5.53;3.05;;;;;;;;;;5000480;28;20049;-79
2021/07/19 02:41:34;;;;;;;5.05;3.05;;;;;;;;;;5032554;28;20041;-78
2021/07/19 02:44:01;;;;;;;4.72;3.10;;;;;;;;;;4986414;28;20128;-79
2021/07/19 02:46:27;;;;;;;5.68;3.58;;;;;;;;;;4998298;28;20053;-79
2021/07/19 02:48:53;;;;;;;4.43;3.28;;;;;;;;;;4995206;28;20038;-79
2021/07/19 02:51:38;;;;;;;4.20;3.05;;;;;;;;;;4994855;28;20034;-79
2021/07/19 02:54:09;;;;;;;5.25;3.25;;;;;;;;;;5028593;28;20096;-79
2021/07/19 02:56:36;;;;;;;5.45;3.42;;;;;;;;;;4978957;28;20041;-79
2021/07/19 02:59:02;;;;;;;6.82;3.40;;;;;;;;;;5011186;28;20052;-79
2021/07/19 03:01:27;;;;;;;4.50;3.10;;;;;;;;;;4978050;28;20029;-79
2021/07/19 03:03:55;;;;;;;5.15;3.00;;;;;;;;;;4995053;28;20038;-82
2021/07/19 03:06:23;;;;;;;8.00;3.55;;;;;;;;;;5027110;28;20097;-79
2021/07/19 03:08:49;;;;;;;5.10;3.30;;;;;;;;;;5015393;28;20419;-79
2021/07/19 03:11:26;;;;;;;4.05;3.45;;;;;;;;;;5014815;28;20029;-79
2021/07/19 03:13:56;;;;;;;4.05;3.05;;;;;;;;;;5015117;28;20038;-79
2021/07/19 03:16:22;;;;;;;4.78;3.30;;;;;;;;;;5029890;28;20052;-79
2021/07/19 03:18:47;;;;;;;5.63;2.72;;;;;;;;;;5046640;28;20500;-79
2021/07/19 03:21:15;;;;;;;4.68;3.00;;;;;;;;;;4989755;28;20440;-79
2021/07/19 03:23:40;;;;;;;5.10;2.47;;;;;;;;;;5011091;28;20073;-80
2021/07/19 03:26:06;;;;;;;7.45;2.95;;;;;;;;;;5026885;28;20112;-80
2021/07/19 03:28:31;;;;;;;4.45;2.80;;;;;;;;;;5028154;28;20045;-79
2021/07/19 03:30:56;;;;;;;7.32;3.25;;;;;;;;;;4994524;28;20037;-79
2021/07/19 03:33:22;;;;;;;7.10;2.97;;;;;;;;;;5027894;28;20050;-79
2021/07/19 03:35:47;;;;;;;5.05;2.80;;;;;;;;;;5027760;28;20046;-79
2021/07/19 03:38:16;;;;;;;4.32;2.70;;;;;;;;;;5043262;28;20417;-79
2021/07/19 03:40:42;;;;;;;5.60;3.20;;;;;;;;;;5011325;28;20034;-79
2021/07/19 03:43:07;;;;;;;5.45;3.00;;;;;;;;;;5026861;28;20784;-79
2021/07/19 03:45:33;;;;;;;4.50;2.75;;;;;;;;;;5026714;28;20038;-79
2021/07/19 03:48:00;;;;;;;4.72;3.33;;;;;;;;;;5011377;28;20041;-80
2021/07/19 03:50:25;;;;;;;4.93;3.45;;;;;;;;;;5011164;28;20041;-79
2021/07/19 03:52:51;;;;;;;5.20;3.35;;;;;;;;;;5027027;28;20042;-79
2021/07/19 03:55:17;;;;;;;4.25;2.90;;;;;;;;;;4994549;28;20046;-79
2021/07/19 03:57:42;;;;;;;4.75;3.08;;;;;;;;;;5023818;28;20054;-79
2021/07/19 04:00:12;;;;;;;4.57;2.88;;;;;;;;;;4993500;28;20109;-79
2021/07/19 04:02:38;;;;;;;6.07;2.88;;;;;;;;;;4994557;28;20049;-79
2021/07/19 04:05:06;;;;;;;4.03;2.78;;;;;;;;;;4978153;28;20037;-79
2021/07/19 04:07:32;;;;;;;3.53;2.53;;;;;;;;;;4994661;28;20041;-79
2021/07/19 04:09:58;;;;;;;4.40;3.10;;;;;;;;;;5027111;28;20065;-79
2021/07/19 04:12:23;;;;;;;6.05;3.05;;;;;;;;;;5025304;28;20508;-79
2021/07/19 04:14:49;;;;;;;3.28;2.92;;;;;;;;;;5026890;28;20103;-79
2021/07/19 04:17:14;;;;;;;6.72;3.40;;;;;;;;;;5010602;28;20124;-79
2021/07/19 04:19:43;;;;;;;6.20;2.90;;;;;;;;;;5019532;28;20038;-79
2021/07/19 04:22:10;;;;;;;3.60;2.65;;;;;;;;;;4999435;28;20036;-79
2021/07/19 04:24:36;;;;;;;7.55;2.90;;;;;;;;;;4978015;28;20042;-79
2021/07/19 04:27:02;;;;;;;4.50;3.10;;;;;;;;;;5010149;28;20033;-79
2021/07/19 04:29:27;;;;;;;4.53;2.90;;;;;;;;;;4990448;28;20054;-80
2021/07/19 04:31:54;;;;;;;4.80;3.10;;;;;;;;;;4958489;28;20042;-79
2021/07/19 04:34:33;;;;;;;5.03;2.90;;;;;;;;;;4958930;28;20081;-79
2021/07/19 04:37:09;;;;;;;5.75;3.30;;;;;;;;;;4992445;28;20029;-79
2021/07/19 04:39:38;;;;;;;4.82;3.00;;;;;;;;;;5038048;28;20041;-79
2021/07/19 04:42:04;;;;;;;4.43;2.97;;;;;;;;;;5018059;28;20031;-79
2021/07/19 04:44:31;;;;;;;4.55;3.22;;;;;;;;;;4977326;28;20037;-79
2021/07/19 04:46:56;;;;;;;4.15;3.15;;;;;;;;;;5021585;28;20408;-79
2021/07/19 04:49:22;;;;;;;4.85;3.22;;;;;;;;;;5004460;28;20038;-79
2021/07/19 04:51:47;;;;;;;8.75;3.25;;;;;;;;;;4988433;28;20042;-79
2021/07/19 04:54:26;;;;;;;5.68;2.83;;;;;;;;;;4989114;28;20057;-79
2021/07/19 04:56:56;;;;;;;7.43;3.25;;;;;;;;;;5023145;28;20101;-78
2021/07/19 04:59:22;;;;;;;4.80;2.60;;;;;;;;;;5023505;28;20042;-78
2021/07/19 05:01:48;;;;;;;5.88;3.30;;;;;;;;;;5007105;28;20041;-79
2021/07/19 05:04:13;;;;;;;6.57;3.10;;;;;;;;;;4991262;28;20042;-79
2021/07/19 05:06:41;;;;;;;5.72;2.83;;;;;;;;;;4997625;28;20038;-79
2021/07/19 05:09:06;;;;;;;6.75;3.20;;;;;;;;;;5026839;28;20148;-79
2021/07/19 05:11:32;;;;;;;8.20;3.03;;;;;;;;;;5014333;28;20533;-79
2021/07/19 05:13:57;;;;;;;7.05;3.67;;;;;;;;;;4995699;28;20128;-79
2021/07/19 05:16:23;;;;;;;6.20;3.60;;;;;;;;;;5000306;28;20050;-79
2021/07/19 05:18:48;;;;;;;6.60;3.75;;;;;;;;;;4977638;28;20037;-79
2021/07/19 05:21:14;;;;;;;5.13;2.78;;;;;;;;;;4993610;28;20034;-79
2021/07/19 05:23:43;;;;;;;4.40;3.13;;;;;;;;;;4980382;28;20068;-79
2021/07/19 05:26:09;;;;;;;5.80;3.20;;;;;;;;;;4997655;28;20038;-79
2021/07/19 05:28:34;;;;;;;6.05;3.00;;;;;;;;;;5013769;28;20069;-79
2021/07/19 05:31:00;;;;;;;5.25;2.75;;;;;;;;;;5013647;28;20034;-78
2021/07/19 05:33:25;;;;;;;4.97;3.42;;;;;;;;;;4980755;28;20038;-79
2021/07/19 05:35:52;;;;;;;6.68;3.38;;;;;;;;;;5007056;28;20033;-79
2021/07/19 05:38:17;;;;;;;4.85;3.28;;;;;;;;;;4967423;28;20451;-78
2021/07/19 05:40:43;;;;;;;4.40;2.65;;;;;;;;;;5029510;28;20037;-79
2021/07/19 05:43:08;;;;;;;5.00;2.88;;;;;;;;;;5048991;28;20053;-79
2021/07/19 05:45:34;;;;;;;3.70;3.30;;;;;;;;;;5004449;28;20034;-78
2021/07/19 05:47:59;;;;;;;5.85;3.70;;;;;;;;;;5013151;28;20121;-79
2021/07/19 05:50:28;;;;;;;9.45;6.22;;;;;;;;;;5028356;28;20103;-78
2021/07/19 05:52:54;;;;;;;6.68;4.93;;;;;;;;;;5013512;28;20045;-78
2021/07/19 05:55:20;;;;;;;8.35;5.28;;;;;;;;;;5029293;28;20129;-79
2021/07/19 05:57:45;;;;;;;6.93;5.53;;;;;;;;;;4996437;28;20117;-78
2021/07/19 06:00:14;;;;;;;7.10;5.43;;;;;;;;;;4992038;28;20038;-78
2021/07/19 06:02:40;;;;;;;9.65;5.32;;;;;;;;;;4994007;28;20119;-79
2021/07/19 06:05:06;;;;;;;8.45;5.68;;;;;;;;;;4996135;28;20450;-78
2021/07/19 06:07:31;;;;;;;10.85;5.88;;;;;;;;;;5008397;28;20042;-78
2021/07/19 06:09:57;;;;;;;7.97;5.88;;;;;;;;;;5020800;28;20034;-78
2021/07/19 06:12:22;;;;;;;10.57;5.00;;;;;;;;;;5029046;28;20103;-78
2021/07/19 06:14:48;;;;;;;8.65;6.18;;;;;;;;;;5029068;28;20030;-78
2021/07/19 06:17:14;;;;;;;8.55;5.10;;;;;;;;;;5012754;28;20069;-78
2021/07/19 06:19:40;;;;;;;7.75;5.10;;;;;;;;;;5008867;28;20038;-79
2021/07/19 06:22:08;;;;;;;9.40;5.43;;;;;;;;;;5005361;28;20030;-78
2021/07/19 06:24:33;;;;;;;7.13;4.80;;;;;;;;;;4995882;28;20053;-78
2021/07/19 06:26:58;;;;;;;8.10;5.60;;;;;;;;;;5012012;28;20057;-78
2021/07/19 06:29:24;;;;;;;8.40;5.43;;;;;;;;;;5013932;28;20056;-78
2021/07/19 06:31:49;;;;;;;9.43;5.50;;;;;;;;;;5014408;28;20034;-78
2021/07/19 06:34:15;;;;;;;11.98;4.88;;;;;;;;;;5047550;28;20041;-78
2021/07/19 06:36:40;;;;;;;11.93;5.57;;;;;;;;;;5048968;28;20041;-78
2021/07/19 06:39:08;;;;;;;10.85;5.43;;;;;;;;;;5048434;28;20496;-78
2021/07/19 06:41:33;;;;;;;8.45;5.72;;;;;;;;;;5018537;28;20470;-78
2021/07/19 06:43:59;;;;;;;7.70;4.75;;;;;;;;;;5019173;28;20034;-79
2021/07/19 06:46:24;;;;;;;8.70;5.88;;;;;;;;;;5025179;28;20397;-78
2021/07/19 06:48:49;;;;;;;9.38;4.90;;;;;;;;;;5036840;28;20526;-78
2021/07/19 06:51:15;;;;;;;6.90;5.25;;;;;;;;;;5000486;28;20041;-78
2021/07/19 06:53:40;;;;;;;7.97;4.95;;;;;;;;;;4998765;28;20045;-78
2021/07/19 06:56:07;;;;;;;10.02;5.40;;;;;;;;;;4993652;28;20045;-78
2021/07/19 06:58:32;;;;;;;5.50;4.57;;;;;;;;;;5003985;28;20427;-78
2021/07/19 07:00:58;;;;;;;9.23;4.55;;;;;;;;;;5003360;28;20088;-78
2021/07/19 07:03:24;;;;;;;7.45;4.35;;;;;;;;;;5027631;28;20088;-78
2021/07/19 07:05:51;;;;;;;8.68;4.43;;;;;;;;;;4991444;28;20049;-78
2021/07/19 07:08:17;;;;;;;7.45;4.43;;;;;;;;;;5027274;28;20042;-78
2021/07/19 07:10:43;;;;;;;6.07;4.00;;;;;;;;;;4995251;28;20042;-78
2021/07/19 07:13:09;;;;;;;7.45;3.55;;;;;;;;;;4978774;28;20041;-78
2021/07/19 07:15:37;;;;;;;6.05;4.13;;;;;;;;;;4994809;28;20121;-79
2021/07/19 07:18:04;;;;;;;9.45;3.85;;;;;;;;;;4993006;28;20532;-78
2021/07/19 07:20:30;;;;;;;6.22;4.30;;;;;;;;;;5008161;28;20034;-79
2021/07/19 07:22:55;;;;;;;7.97;3.85;;;;;;;;;;4991606;28;20031;-78
2021/07/19 07:25:21;;;;;;;8.00;4.30;;;;;;;;;;5014898;28;20043;-79
2021/07/19 07:27:46;;;;;;;5.45;3.40;;;;;;;;;;5008125;28;20031;-79
2021/07/19 07:30:12;;;;;;;7.32;4.18;;;;;;;;;;5017595;28;20042;-79
2021/07/19 07:32:38;;;;;;;6.25;3.55;;;;;;;;;;4975704;28;20400;-79
2021/07/19 07:35:04;;;;;;;8.38;4.28;;;;;;;;;;4994679;28;20041;-79
2021/07/19 07:37:31;;;;;;;6.30;3.70;;;;;;;;;;5007390;28;20411;-79
2021/07/19 07:39:56;;;;;;;8.82;4.45;;;;;;;;;;5028593;28;20092;-79
2021/07/19 07:42:22;;;;;;;9.45;5.47;;;;;;;;;;5010347;28;20065;-79
2021/07/19 07:44:48;;;;;;;10.00;5.70;;;;;;;;;;4975389;28;20042;-79
2021/07/19 07:47:13;;;;;;;9.45;5.10;;;;;;;;;;5005411;28;20378;-78
2021/07/19 07:49:39;;;;;;;5.68;3.75;;;;;;;;;;4988765;28;20042;-79
2021/07/19 07:52:05;;;;;;;7.60;4.65;;;;;;;;;;5006198;28;20095;-79
2021/07/19 07:54:30;;;;;;;7.45;4.25;;;;;;;;;;5009024;28;20034;-79
2021/07/19 07:56:56;;;;;;;7.70;4.00;;;;;;;;;;5027085;28;20046;-79
2021/07/19 07:59:21;;;;;;;6.95;4.00;;;;;;;;;;5010561;28;20412;-79
2021/07/19 08:01:47;;;;;;;7.50;4.82;;;;;;;;;;5010656;28;20168;-79
2021/07/19 08:04:13;;;;;;;6.72;3.72;;;;;;;;;;5010607;28;20034;-79
2021/07/19 08:06:38;;;;;;;6.50;4.05;;;;;;;;;;5020053;28;20038;-79
2021/07/19 08:09:03;;;;;;;8.10;3.90;;;;;;;;;;4991270;28;20042;-79
2021/07/19 08:11:29;;;;;;;5.85;3.55;;;;;;;;;;4991091;28;20038;-79
2021/07/19 08:13:54;;;;;;;7.18;4.03;;;;;;;;;;5007313;28;20046;-80
2021/07/19 08:16:20;;;;;;;6.40;3.70;;;;;;;;;;5007103;28;20027;-79
2021/07/19 08:18:46;;;;;;;7.13;4.07;;;;;;;;;;4994123;28;20034;-79
2021/07/19 08:21:12;;;;;;;8.27;5.10;;;;;;;;;;4994027;28;20030;-79
2021/07/19 08:23:37;;;;;;;8.68;4.43;;;;;;;;;;4993658;28;20124;-79
2021/07/19 08:26:02;;;;;;;5.78;4.30;;;;;;;;;;4994190;28;20069;-79
2021/07/19 08:28:28;;;;;;;5.65;3.72;;;;;;;;;;5006933;28;20041;-79
2021/07/19 08:30:53;;;;;;;8.15;3.90;;;;;;;;;;5024502;28;20045;-79
2021/07/19 08:33:19;;;;;;;5.75;4.03;;;;;;;;;;5021217;28;20080;-80
2021/07/19 08:35:45;;;;;;;8.35;4.30;;;;;;;;;;5026392;28;20041;-79
2021/07/19 08:38:11;;;;;;;10.50;4.10;;;;;;;;;;5061443;28;20045;-80
2021/07/19 08:40:37;;;;;;;7.72;4.70;;;;;;;;;;5004752;28;20049;-80
2021/07/19 08:43:04;;;;;;;8.10;4.38;;;;;;;;;;4993731;28;20046;-78
2021/07/19 08:45:30;;;;;;;8.45;4.00;;;;;;;;;;5006071;28;20049;-79
2021/07/19 08:47:56;;;;;;;7.47;4.40;;;;;;;;;;4994068;28;20400;-79
2021/07/19 08:50:22;;;;;;;8.02;4.55;;;;;;;;;;5009757;28;20092;-79
2021/07/19 08:52:49;;;;;;;7.95;6.07;;;;;;;;;;5009602;28;20500;-79
2021/07/19 08:55:15;;;;;;;7.57;5.25;;;;;;;;;;4993406;28;20133;-80
2021/07/19 08:57:42;;;;;;;6.95;5.65;;;;;;;;;;4994987;28;20060;-80
2021/07/19 09:00:09;;;;;;;8.23;5.35;;;;;;;;;;5013122;28;20053;-80
2021/07/19 09:02:39;;;;;;;7.53;6.00;;;;;;;;;;4997197;28;20038;-81
2021/07/19 09:05:09;;;;;;;7.70;5.43;;;;;;;;;;5030359;28;20124;-80
2021/07/19 09:07:35;;;;;;;7.47;6.30;;;;;;;;;;5027430;28;20125;-81
2021/07/19 09:10:01;;;;;;;5.70;5.10;;;;;;;;;;4997369;28;20117;-81
2021/07/19 09:12:44;;;;;;;8.13;6.10;;;;;;;;;;5030119;28;20054;-81
2021/07/19 09:15:12;;;;;;;8.32;6.18;;;;;;;;;;5013815;28;20049;-80
2021/07/19 09:17:38;;;;;;;6.80;5.90;;;;;;;;;;4996759;28;20111;-81
2021/07/19 09:20:07;;;;;;;7.50;6.60;;;;;;;;;;5030509;28;20041;-80
2021/07/19 09:22:33;;;;;;;7.57;6.55;;;;;;;;;;5030791;28;20429;-79
2021/07/19 09:25:17;;;;;;;9.38;6.40;;;;;;;;;;4981331;28;20041;-79
2021/07/19 09:28:04;;;;;;;8.57;5.88;;;;;;;;;;5013380;28;20042;-78
2021/07/19 09:30:30;;;;;;;7.20;6.10;;;;;;;;;;5009648;28;20035;-78
2021/07/19 09:33:13;;;;;;;8.52;5.90;;;;;;;;;;4993730;28;20073;-78
2021/07/19 09:35:45;;;;;;;7.70;5.88;;;;;;;;;;4998737;28;20046;-78
2021/07/19 09:38:15;;;;;;;7.38;6.22;;;;;;;;;;5016057;28;20065;-78
2021/07/19 09:40:41;;;;;;;8.02;6.93;;;;;;;;;;4978840;28;20108;-78
2021/07/19 09:43:30;;;;;;;14.23;11.43;;;;;;;;;;5001510;28;20040;-78
2021/07/19 09:46:03;;;;;;;11.65;8.38;;;;;;;;;;5041102;28;20049;-79
2021/07/19 09:48:29;;;;;;;8.85;7.45;;;;;;;;;;5014643;28;20101;-78
2021/07/19 09:50:55;;;;;;;9.93;8.27;;;;;;;;;;5000311;28;20116;-79
2021/07/19 09:53:29;;;;;;;8.73;7.40;;;;;;;;;;5010305;28;20033;-78
2021/07/19 09:56:09;;;;;;;9.45;7.10;;;;;;;;;;4996321;28;20512;-78
2021/07/19 09:58:34;;;;;;;11.73;7.90;;;;;;;;;;5018927;28;20088;-78
2021/07/19 10:01:00;;;;;;;9.23;7.10;;;;;;;;;;4996486;28;20108;-78
2021/07/19 10:03:25;;;;;;;9.85;8.35;;;;;;;;;;5013606;28;20085;-78
2021/07/19 10:05:50;;;;;;;10.35;8.00;;;;;;;;;;5011874;28;20061;-78
2021/07/19 10:08:21;;;;;;;11.57;8.90;;;;;;;;;;4996652;28;20105;-79
2021/07/19 10:10:46;;;;;;;11.40;7.97;;;;;;;;;;5012578;28;20069;-79
2021/07/19 10:13:12;;;;;;;9.15;8.18;;;;;;;;;;5000905;28;20068;-79
2021/07/19 10:15:38;;;;;;;9.07;7.93;;;;;;;;;;4999150;28;20045;-78
2021/07/19 10:18:08;;;;;;;9.77;7.88;;;;;;;;;;4987169;28;20042;-79
2021/07/19 10:20:33;;;;;;;10.00;7.38;;;;;;;;;;5027634;28;20057;-79
2021/07/19 10:22:59;;;;;;;11.23;7.68;;;;;;;;;;5019002;28;20599;-79
2021/07/19 10:25:24;;;;;;;9.18;7.97;;;;;;;;;;5003450;28;20042;-79
2021/07/19 10:27:50;;;;;;;9.90;7.47;;;;;;;;;;4995216;28;20041;-79
2021/07/19 10:30:16;;;;;;;10.10;7.15;;;;;;;;;;5028033;28;20077;-79
2021/07/19 10:32:41;;;;;;;10.20;7.70;;;;;;;;;;5011926;28;20034;-79
2021/07/19 10:35:07;;;;;;;12.18;7.63;;;;;;;;;;5030036;28;20412;-79
2021/07/19 10:37:34;;;;;;;9.45;6.65;;;;;;;;;;5025453;28;20065;-78
2021/07/19 10:40:00;;;;;;;10.38;7.13;;;;;;;;;;5012533;28;20037;-79
2021/07/19 10:42:35;;;;;;;9.95;7.22;;;;;;;;;;5010675;28;20072;-79
2021/07/19 10:45:11;;;;;;;9.25;6.65;;;;;;;;;;5004228;28;20411;-78
2021/07/19 10:47:53;;;;;;;9.88;6.53;;;;;;;;;;4996299;28;20570;-79
2021/07/19 10:50:25;;;;;;;8.45;6.25;;;;;;;;;;4995040;28;20042;-79
2021/07/19 10:52:51;;;;;;;9.48;6.25;;;;;;;;;;4992430;28;20042;-79
2021/07/19 10:55:27;;;;;;;7.43;5.93;;;;;;;;;;5009480;28;20049;-78
2021/07/19 10:58:00;;;;;;;8.10;6.40;;;;;;;;;;5015574;28;20041;-79
2021/07/19 11:00:26;;;;;;;8.60;6.55;;;;;;;;;;4995743;28;20129;-79
2021/07/19 11:03:04;;;;;;;8.13;6.32;;;;;;;;;;4995716;28;20034;-79
2021/07/19 11:05:37;;;;;;;9.13;6.70;;;;;;;;;;4994699;28;20073;-79
2021/07/19 11:08:03;;;;;;;7.30;6.18;;;;;;;;;;4979936;28;20087;-79
2021/07/19 11:10:29;;;;;;;10.60;6.03;;;;;;;;;;5028154;28;20033;-79
2021/07/19 11:12:58;;;;;;;9.52;6.60;;;;;;;;;;4994689;28;20041;-79
2021/07/19 11:15:37;;;;;;;9.70;7.05;;;;;;;;;;5020654;28;20121;-79
2021/07/19 11:18:15;;;;;;;8.88;6.75;;;;;;;;;;5011205;28;20728;-79
2021/07/19 11:20:42;;;;;;;7.55;6.47;;;;;;;;;;5008610;28;20034;-79
2021/07/19 11:23:07;;;;;;;8.40;6.45;;;;;;;;;;4978967;28;20105;-78
2021/07/19 11:25:46;;;;;;;9.48;7.03;;;;;;;;;;4977712;28;20046;-79
2021/07/19 11:28:28;;;;;;;16.50;14.02;;;;;;;;;;4979255;28;20034;-79
2021/07/19 11:31:26;;;;;;;25.02;17.83;;;;;;;;;;4988241;28;20040;-78
2021/07/19 11:34:04;;;;;;;11.93;10.57;;;;;;;;;;5013624;28;20073;-79
2021/07/19 11:36:44;;;;;;;14.10;8.68;;;;;;;;;;5014411;28;20041;-79
2021/07/19 11:39:16;;;;;;;11.05;8.52;;;;;;;;;;5000084;28;20046;-79
2021/07/19 11:41:41;;;;;;;9.77;7.20;;;;;;;;;;4985490;28;20048;-79
2021/07/19 11:44:14;;;;;;;8.63;7.38;;;;;;;;;;5008584;28;20042;-78
2021/07/19 11:46:39;;;;;;;9.13;7.60;;;;;;;;;;5026664;28;20042;-79
2021/07/19 11:49:09;;;;;;;10.85;8.35;;;;;;;;;;4994206;28;20030;-79
2021/07/19 11:51:35;;;;;;;12.75;8.88;;;;;;;;;;4979105;28;20046;-79
2021/07/19 11:54:01;;;;;;;12.75;8.77;;;;;;;;;;4977980;28;20060;-79
2021/07/19 11:56:26;;;;;;;9.93;8.27;;;;;;;;;;5010203;28;20042;-79
2021/07/19 11:58:59;;;;;;;9.75;7.85;;;;;;;;;;5008538;28;20084;-79
2021/07/19 12:01:29;;;;;;;10.75;8.73;;;;;;;;;;5008191;28;20050;-78
2021/07/19 12:03:55;;;;;;;10.88;9.13;;;;;;;;;;4992914;28;20085;-78
2021/07/19 12:06:21;;;;;;;12.73;9.68;;;;;;;;;;4995281;28;20136;-78
2021/07/19 12:08:56;;;;;;;11.27;8.93;;;;;;;;;;5015957;28;20291;-78
2021/07/19 12:11:23;;;;;;;12.13;8.82;;;;;;;;;;5026920;28;20076;-78
2021/07/19 12:13:49;;;;;;;11.15;9.32;;;;;;;;;;5029910;28;20049;-78
2021/07/19 12:16:14;;;;;;;10.18;9.02;;;;;;;;;;5030276;28;20121;-78
2021/07/19 12:18:48;;;;;;;15.02;9.43;;;;;;;;;;5028433;28;20026;-78
2021/07/19 12:21:19;;;;;;;12.23;9.32;;;;;;;;;;4969288;28;20037;-78
2021/07/19 12:23:47;;;;;;;11.55;9.98;;;;;;;;;;5011067;28;20077;-78
2021/07/19 12:26:17;;;;;;;11.90;10.55;;;;;;;;;;5019007;28;20037;-78
2021/07/19 12:28:53;;;;;;;12.57;10.15;;;;;;;;;;5007693;28;20038;-78
2021/07/19 12:31:24;;;;;;;13.60;11.95;;;;;;;;;;5041858;28;20045;-78
2021/07/19 12:33:49;;;;;;;14.82;12.30;;;;;;;;;;5013541;28;20113;-78
2021/07/19 12:36:19;;;;;;;11.90;10.68;;;;;;;;;;5030974;28;20060;-79
2021/07/19 12:38:45;;;;;;;16.95;11.57;;;;;;;;;;4991071;28;20046;-78
2021/07/19 12:41:11;;;;;;;19.23;14.88;;;;;;;;;;5030071;28;20037;-78
2021/07/19 12:43:38;;;;;;;18.33;15.98;;;;;;;;;;5014660;28;20046;-79
2021/07/19 12:46:04;;;;;;;15.90;14.30;;;;;;;;;;4997808;28;20062;-78
2021/07/19 12:48:30;;;;;;;14.63;12.63;;;;;;;;;;4986801;28;20037;-78
2021/07/19 12:51:00;;;;;;;13.65;12.13;;;;;;;;;;5050385;28;20026;-78
2021/07/19 12:53:31;;;;;;;13.70;12.25;;;;;;;;;;5002629;28;20500;-78
2021/07/19 12:56:09;;;;;;;16.42;12.52;;;;;;;;;;4996902;28;20080;-78
2021/07/19 12:58:35;;;;;;;15.73;13.75;;;;;;;;;;4981309;28;20041;-78
2021/07/19 13:01:09;;;;;;;14.98;13.43;;;;;;;;;;4983816;28;20046;-78
2021/07/19 13:03:34;;;;;;;14.75;13.25;;;;;;;;;;4999868;28;20408;-78
2021/07/19 13:06:00;;;;;;;15.35;13.85;;;;;;;;;;5017347;28;20040;-78
2021/07/19 13:08:32;;;;;;;14.98;13.48;;;;;;;;;;5001143;28;20041;-78
2021/07/19 13:11:12;;;;;;;15.23;13.27;;;;;;;;;;4969829;28;20425;-79
2021/07/19 13:13:37;;;;;;;14.73;12.50;;;;;;;;;;4994459;28;20042;-79
2021/07/19 13:16:03;;;;;;;14.93;13.32;;;;;;;;;;4994209;28;20048;-78
2021/07/19 13:18:28;;;;;;;18.38;14.90;;;;;;;;;;5016492;28;20118;-78
2021/07/19 13:21:09;;;;;;;15.85;14.13;;;;;;;;;;5026941;28;20480;-79
2021/07/19 13:23:38;;;;;;;16.40;14.85;;;;;;;;;;5013031;28;20496;-78
2021/07/19 13:26:08;;;;;;;17.60;15.73;;;;;;;;;;4978083;28;20053;-79
2021/07/19 13:28:34;;;;;;;16.17;14.45;;;;;;;;;;4977193;28;20575;-78
2021/07/19 13:31:03;;;;;;;16.60;14.43;;;;;;;;;;4997076;28;20038;-78
2021/07/19 13:33:29;;;;;;;15.43;13.77;;;;;;;;;;5010759;28;20041;-78
2021/07/19 13:35:56;;;;;;;16.67;14.98;;;;;;;;;;4980839;28;20401;-79
2021/07/19 13:38:30;;;;;;;16.92;15.20;;;;;;;;;;5029333;28;20039;-78
2021/07/19 13:40:56;;;;;;;16.15;14.50;;;;;;;;;;5016691;28;20068;-78
2021/07/19 13:43:22;;;;;;;20.13;17.98;;;;;;;;;;5016113;28;20103;-79
2021/07/19 13:45:53;;;;;;;17.92;15.32;;;;;;;;;;5012770;28;20125;-78
2021/07/19 13:48:18;;;;;;;16.98;14.88;;;;;;;;;;4993740;28;20037;-78
2021/07/19 13:50:43;;;;;;;14.82;13.32;;;;;;;;;;5013538;28;20034;-78
2021/07/19 13:53:09;;;;;;;15.65;14.02;;;;;;;;;;5007493;28;20026;-78
2021/07/19 13:55:38;;;;;;;16.10;14.23;;;;;;;;;;5023132;28;20052;-78
2021/07/19 13:58:04;;;;;;;15.68;13.63;;;;;;;;;;4996488;28;20034;-79
2021/07/19 14:00:30;;;;;;;16.90;14.65;;;;;;;;;;5001682;28;20044;-78
2021/07/19 14:02:55;;;;;;;18.13;14.32;;;;;;;;;;4998680;28;20029;-79
2021/07/19 14:05:21;;;;;;;15.60;13.93;;;;;;;;;;4994460;28;20103;-78
2021/07/19 14:07:47;;;;;;;16.30;14.60;;;;;;;;;;4999983;28;20105;-78
2021/07/19 14:10:12;;;;;;;15.13;13.60;;;;;;;;;;5028080;28;20065;-78
2021/07/19 14:12:38;;;;;;;15.10;13.50;;;;;;;;;;5013788;28;20037;-78
2021/07/19 14:15:07;;;;;;;15.23;13.63;;;;;;;;;;5004983;28;20029;-79
2021/07/19 14:17:34;;;;;;;14.90;12.95;;;;;;;;;;4983761;28;20458;-79
2021/07/19 14:19:59;;;;;;;14.10;12.45;;;;;;;;;;5012311;28;20065;-79
2021/07/19 14:22:25;;;;;;;14.60;12.45;;;;;;;;;;5015436;28;20121;-78
2021/07/19 14:24:50;;;;;;;18.10;12.15;;;;;;;;;;4979011;28;20041;-79
2021/07/19 14:27:16;;;;;;;12.70;11.40;;;;;;;;;;5040387;28;20037;-78
2021/07/19 14:29:41;;;;;;;13.70;12.10;;;;;;;;;;5012384;28;20042;-78
2021/07/19 14:32:07;;;;;;;13.63;11.02;;;;;;;;;;5012428;28;20034;-79
2021/07/19 14:34:34;;;;;;;12.63;10.95;;;;;;;;;;4996313;28;20045;-78
2021/07/19 14:36:59;;;;;;;14.75;11.15;;;;;;;;;;5004772;28;20037;-78
2021/07/19 14:39:24;;;;;;;14.43;11.52;;;;;;;;;;4995496;28;20409;-79
2021/07/19 14:41:50;;;;;;;13.23;10.60;;;;;;;;;;5008001;28;20034;-78